Little Rock Air Force Base
KLRF : now visible

Airfield :











YOU CAN JOIN US ON...

 
LOGIN :

Register | Disclaimer

   EN    FR    IT 

 









Legend :    VFR   Marginal VFR   IFR   Intensive IFR   Very Intensive IFR
Visi :
Ceiling :
>= 8 km
>= 3000ft
5 to 8 km
1000 to 3000 ft
1500m to 5 km
500 to 1000 ft
800 to 1500m
200 to 500 ft
< 800m
< 200 ft
Symbols :   Thunderstorms  Fog  Heavy snow  Heavy precipitations  Wind > 20 kt







- Airport Elevation : 311 ft


KLRF - Little Rock Air Force Base

CURRENT METAR :
  • 171156Z AUTO 21007KT 10SM FEW055 26/26 A3000 RMK AO2 SLP159 70005 T02620260 10264 20254 RVRNO PNO FZRANO TSNO $

EXPIRED METARs :
  • 171144Z 21004KT 10SM FEW055 26/26 A3000 RMK SLP159 $
  • 171116Z AUTO 21005KT 10SM SCT011 26/26 A3000 RMK AO2 SLP159 $
  • 171100Z 00000KT 10SM SCT010 BKN025 26/25 A3002 RMK WND DATA ESTMD SLPNO
  • 171020Z 21005KT 10SM BKN009 26/26 A2999 RMK SLP155 $
  • 170956Z AUTO 21005KT 10SM OVC008 26/26 A2998 RMK AO2 SLP152 T02640264 $
  • 170936Z 22006KT 10SM OVC008 26/26 A2998 RMK AO2A SLP152 $
  • 170912Z 21005KT 10SM OVC007 26/26 A2998 RMK SLP152 $

TAF TAF KLRF
Valid from the 17 at 07:00 until the 18 at 13:00 UTC


170700Z 1707/1813 VRB06KT 8000 BR BKN002 BKN040 QNH2998INS
BECMG 1708/1709 VRB06KT 8000 BR BKN007 BKN030 WS020/23030KT QNH2998INS
BECMG 1710/1711 VRB06KT 9999 NSW FEW030 WS020/23030KT QNH3001INS
BECMG 1714/1715 23010G15KT 9999 FEW050 QNH2994INS
BECMG 1801/1802 VRB06KT 9999 SCT050 QNH2995INS TX34/1720Z TN25/1708Z
KZME FIR / North America



MET'MAP, your aeronautical weather chart ! - Copyright ORBIFLY December 2007 - Disclaimer

ORBIFLY MET'MAP TEAM :

Programming & Development : Alexandra Zaïnal
Concept & Development : Baudouin d'Aumeries
Co-Development & Prog : Marc-Olivier Méhu
Technical & hardware support : Manuel Goepfert

Contact : metmap@orbifly.com




SOURCES & CREDITS :

   NOAA       Earth
Advisory